createdAt,value
2023-02-11T00:00:08.248Z,44.00
2023-02-11T00:03:16.202Z,44.80
2023-02-11T00:06:23.602Z,44.50
2023-02-11T00:09:31.968Z,47.60
2023-02-11T00:12:39.461Z,43.80
2023-02-11T00:15:46.980Z,45.40
2023-02-11T00:18:54.776Z,47.60
2023-02-11T00:22:02.160Z,47.10
2023-02-11T00:25:09.407Z,49.60
2023-02-11T00:28:17.078Z,44.70
2023-02-11T00:31:24.508Z,48.60
2023-02-11T00:34:32.053Z,47.60
2023-02-11T00:37:39.759Z,51.60
2023-02-11T00:40:46.848Z,48.10
2023-02-11T00:43:54.228Z,47.10
2023-02-11T00:47:02.279Z,48.40
2023-02-11T00:50:09.315Z,44.50
2023-02-11T00:53:17.050Z,51.70
2023-02-11T00:56:24.872Z,49.30
2023-02-11T00:59:32.097Z,47.20
2023-02-11T01:02:40.325Z,52.80
2023-02-11T01:05:48.206Z,51.10
2023-02-11T01:08:55.584Z,49.70
2023-02-11T01:12:03.373Z,51.20
2023-02-11T01:15:10.716Z,51.20
2023-02-11T01:18:18.430Z,52.60
2023-02-11T01:21:26.209Z,49.40
2023-02-11T01:24:33.696Z,53.40
2023-02-11T01:27:41.158Z,54.70
2023-02-11T01:30:48.973Z,56.90
2023-02-11T01:33:58.118Z,58.50
2023-02-11T01:37:05.578Z,56.70
2023-02-11T01:40:13.207Z,59.50
2023-02-11T01:43:21.296Z,67.60
2023-02-11T01:46:28.450Z,60.30
2023-02-11T01:49:36.679Z,61.60
2023-02-11T01:52:44.462Z,63.60
2023-02-11T01:55:51.744Z,65.80
2023-02-11T01:58:59.482Z,68.60
2023-02-11T02:02:06.842Z,64.40
2023-02-11T02:05:14.288Z,66.20
2023-02-11T02:08:22.064Z,59.50
2023-02-11T02:11:29.855Z,61.40
2023-02-11T02:14:37.432Z,66.40
2023-02-11T02:17:45.619Z,60.10
2023-02-11T02:20:53.238Z,67.60
2023-02-11T02:24:00.752Z,60.00
2023-02-11T02:27:08.040Z,58.00
2023-02-11T02:30:16.405Z,61.90
2023-02-11T02:33:23.965Z,63.10
2023-02-11T02:36:31.505Z,64.60
2023-02-11T02:39:39.682Z,67.30
2023-02-11T02:42:46.981Z,64.10
2023-02-11T02:45:54.574Z,66.10
2023-02-11T02:49:02.156Z,64.50
2023-02-11T02:52:09.197Z,60.70
2023-02-11T02:55:16.787Z,64.00
2023-02-11T02:58:24.104Z,64.60
2023-02-11T03:01:31.594Z,60.40
2023-02-11T03:04:39.260Z,63.70
2023-02-11T03:07:47.045Z,63.80
2023-02-11T03:10:54.500Z,67.10
2023-02-11T03:14:01.957Z,67.60
2023-02-11T03:17:10.833Z,66.50
2023-02-11T03:20:18.322Z,66.40
2023-02-11T03:23:26.502Z,65.20
2023-02-11T03:26:34.230Z,61.20
2023-02-11T03:29:41.847Z,66.00
2023-02-11T03:32:49.996Z,69.50
2023-02-11T03:35:58.117Z,68.10
2023-02-11T03:39:05.255Z,66.90
2023-02-11T03:42:13.054Z,65.20
2023-02-11T03:45:20.755Z,64.00
2023-02-11T03:48:28.685Z,69.70
2023-02-11T03:51:36.488Z,65.60
2023-02-11T03:54:44.028Z,63.30
2023-02-11T03:57:51.981Z,59.30
2023-02-11T04:00:59.219Z,57.50
2023-02-11T04:04:06.548Z,65.10
2023-02-11T04:07:15.146Z,66.90
2023-02-11T04:10:22.250Z,59.50
2023-02-11T04:13:30.419Z,66.40
2023-02-11T04:16:37.856Z,62.20
2023-02-11T04:19:45.256Z,65.70
2023-02-11T04:22:52.984Z,70.00
2023-02-11T04:26:00.424Z,68.00
2023-02-11T04:29:08.085Z,65.00
2023-02-11T04:32:15.848Z,65.70
2023-02-11T04:35:23.617Z,65.10
2023-02-11T04:38:31.274Z,77.20
2023-02-11T04:41:38.700Z,73.40
2023-02-11T04:44:46.505Z,71.40
2023-02-11T04:47:53.878Z,78.00
2023-02-11T04:51:01.491Z,81.20
2023-02-11T04:54:09.459Z,79.20
2023-02-11T04:57:16.976Z,81.80
2023-02-11T05:00:24.827Z,78.80
2023-02-11T05:03:32.266Z,86.20
2023-02-11T05:06:39.445Z,91.20
2023-02-11T05:09:47.495Z,91.40
2023-02-11T05:12:56.170Z,92.80
2023-02-11T05:16:03.349Z,96.10
2023-02-11T05:19:11.345Z,84.20
2023-02-11T05:22:19.232Z,98.60
2023-02-11T05:25:26.324Z,99.40
2023-02-11T05:28:34.266Z,91.60
2023-02-11T05:31:41.662Z,95.80
2023-02-11T05:34:49.537Z,95.40
2023-02-11T05:37:57.666Z,93.50
2023-02-11T05:41:04.810Z,95.60
2023-02-11T05:44:13.076Z,97.00
2023-02-11T05:47:20.932Z,93.40
2023-02-11T05:50:28.473Z,82.20
2023-02-11T05:53:35.979Z,85.60
2023-02-11T05:56:44.995Z,82.40
2023-02-11T05:59:52.994Z,80.20
2023-02-11T06:03:00.697Z,78.80
2023-02-11T06:06:08.274Z,68.40
2023-02-11T06:09:16.368Z,79.00
2023-02-11T06:12:23.731Z,71.40
2023-02-11T06:15:31.584Z,66.00
2023-02-11T06:18:39.578Z,65.60
2023-02-11T06:21:46.753Z,61.50
2023-02-11T06:25:01.619Z,55.70
2023-02-11T06:27:59.682Z,59.20
2023-02-11T06:31:07.569Z,55.00
2023-02-11T06:34:15.634Z,55.50
2023-02-11T06:37:23.251Z,54.00
2023-02-11T06:40:31.159Z,53.30
2023-02-11T06:43:38.997Z,49.60
2023-02-11T06:46:46.494Z,49.30
2023-02-11T06:49:54.191Z,55.20
2023-02-11T06:53:01.894Z,49.30
2023-02-11T06:56:09.465Z,53.80
2023-02-11T06:59:16.458Z,51.70
2023-02-11T07:02:23.614Z,54.30
2023-02-11T07:05:31.026Z,54.20
2023-02-11T07:08:38.236Z,53.30
2023-02-11T07:11:45.294Z,51.40
2023-02-11T07:14:52.603Z,54.60
2023-02-11T07:17:59.513Z,55.60
2023-02-11T07:21:07.664Z,54.10
2023-02-11T07:24:15.822Z,54.90
2023-02-11T07:27:23.310Z,55.10
2023-02-11T07:30:30.741Z,51.00
2023-02-11T07:33:38.538Z,54.80
2023-02-11T07:36:46.697Z,55.50
2023-02-11T07:39:54.214Z,53.20
2023-02-11T07:43:01.738Z,52.30
2023-02-11T07:46:09.270Z,54.20
2023-02-11T07:49:17.876Z,53.60
2023-02-11T07:52:26.286Z,60.20
2023-02-11T07:55:33.825Z,54.50
2023-02-11T07:58:41.626Z,58.80
2023-02-11T08:01:49.133Z,57.70
2023-02-11T08:04:56.269Z,55.40
2023-02-11T08:08:03.183Z,57.50
2023-02-11T08:11:10.955Z,65.60
2023-02-11T08:14:18.156Z,62.00
2023-02-11T08:17:24.997Z,61.30
2023-02-11T08:20:32.468Z,59.20
2023-02-11T08:23:39.664Z,58.60
2023-02-11T08:26:46.953Z,61.10
2023-02-11T08:29:54.761Z,61.10
2023-02-11T08:33:02.410Z,58.30
2023-02-11T08:36:09.848Z,57.70
2023-02-11T08:39:19.534Z,56.10
2023-02-11T08:42:28.025Z,56.40
2023-02-11T08:45:35.643Z,53.90
2023-02-11T08:48:43.320Z,56.10
2023-02-11T08:51:51.071Z,60.60
2023-02-11T08:54:58.358Z,61.10
2023-02-11T08:58:05.729Z,61.80
2023-02-11T09:01:13.016Z,60.00
2023-02-11T09:04:19.979Z,61.20
2023-02-11T09:07:27.582Z,55.70
2023-02-11T09:10:34.584Z,53.00
2023-02-11T09:13:41.748Z,55.00
2023-02-11T09:16:49.577Z,54.10
2023-02-11T09:19:56.841Z,54.70
2023-02-11T09:23:04.379Z,52.90
2023-02-11T09:26:12.278Z,55.30
2023-02-11T09:29:19.831Z,55.90
2023-02-11T09:32:26.959Z,56.50
2023-02-11T09:35:34.648Z,50.30
2023-02-11T09:38:42.036Z,54.20
2023-02-11T09:41:49.498Z,55.10
2023-02-11T09:44:56.720Z,54.90
2023-02-11T09:48:06.233Z,58.40
2023-02-11T09:51:13.688Z,54.90
2023-02-11T09:54:21.092Z,60.00
2023-02-11T09:57:29.424Z,57.00
2023-02-11T10:00:36.501Z,55.60
2023-02-11T10:03:43.920Z,58.80
2023-02-11T10:06:51.462Z,55.60
2023-02-11T10:09:58.419Z,53.00
2023-02-11T10:13:06.301Z,54.30
2023-02-11T10:16:13.651Z,51.30
2023-02-11T10:19:21.398Z,56.20
2023-02-11T10:22:30.583Z,54.50
2023-02-11T10:25:38.206Z,59.30
2023-02-11T10:28:45.527Z,62.40
2023-02-11T10:31:53.383Z,65.00
2023-02-11T10:35:00.524Z,64.50
2023-02-11T10:38:07.594Z,57.00
2023-02-11T10:41:15.061Z,64.50
2023-02-11T10:44:22.439Z,58.30
2023-02-11T10:47:29.934Z,59.00
2023-02-11T10:50:37.019Z,63.10
2023-02-11T10:53:44.167Z,62.10
2023-02-11T10:56:51.698Z,64.60
2023-02-11T10:59:58.704Z,59.90
2023-02-11T11:03:05.967Z,58.90
2023-02-11T11:06:12.757Z,66.40
2023-02-11T11:09:20.537Z,62.60
2023-02-11T11:12:27.692Z,62.30
2023-02-11T11:15:34.790Z,59.70
2023-02-11T11:18:42.259Z,59.50
2023-02-11T11:21:49.073Z,62.10
2023-02-11T11:24:56.664Z,70.10
2023-02-11T11:28:04.123Z,58.70
2023-02-11T11:31:11.062Z,56.60
2023-02-11T11:34:18.574Z,61.90
2023-02-11T11:37:25.842Z,55.60
2023-02-11T11:40:33.142Z,53.80
2023-02-11T11:43:40.557Z,58.30
2023-02-11T11:46:48.136Z,55.40
2023-02-11T11:49:55.305Z,57.80
2023-02-11T11:53:02.212Z,57.20
2023-02-11T11:56:09.874Z,59.10
2023-02-11T11:59:17.124Z,54.60
2023-02-11T12:02:24.189Z,50.40
2023-02-11T12:05:31.890Z,54.10
2023-02-11T12:08:39.324Z,53.70
2023-02-11T12:11:46.406Z,47.50
2023-02-11T12:14:53.986Z,52.30
2023-02-11T12:18:01.139Z,44.00
2023-02-11T12:21:08.546Z,44.30
2023-02-11T12:24:17.416Z,45.70
2023-02-11T12:27:24.727Z,42.90
2023-02-11T12:30:31.793Z,44.00
2023-02-11T12:33:38.919Z,41.00
2023-02-11T12:36:46.781Z,44.90
2023-02-11T12:39:54.223Z,45.10
2023-02-11T12:43:02.707Z,44.90
2023-02-11T12:46:10.689Z,47.40
2023-02-11T12:49:17.464Z,42.30
2023-02-11T12:52:25.095Z,40.70
2023-02-11T12:55:32.807Z,42.50
2023-02-11T12:58:45.433Z,39.40
2023-02-11T13:01:43.021Z,40.30
2023-02-11T13:04:50.227Z,38.20
2023-02-11T13:07:57.740Z,40.60
2023-02-11T13:11:05.048Z,34.00
2023-02-11T13:14:12.263Z,33.20
2023-02-11T13:17:19.727Z,34.60
2023-02-11T13:20:27.185Z,30.10
2023-02-11T13:23:34.851Z,38.20
2023-02-11T13:26:42.454Z,33.00
2023-02-11T13:29:49.801Z,33.30
2023-02-11T13:32:57.691Z,28.60
2023-02-11T13:36:05.054Z,29.30
2023-02-11T13:39:12.263Z,29.90
2023-02-11T13:42:20.037Z,29.50
2023-02-11T13:45:27.019Z,30.30
2023-02-11T13:48:34.900Z,26.80
2023-02-11T13:51:42.463Z,28.50
2023-02-11T13:54:49.550Z,28.70
2023-02-11T13:57:57.131Z,32.00
2023-02-11T14:01:04.336Z,29.50
2023-02-11T14:04:11.753Z,31.10
2023-02-11T14:07:19.060Z,27.20
2023-02-11T14:10:26.728Z,31.50
2023-02-11T14:13:34.404Z,28.70
2023-02-11T14:16:41.920Z,31.40
2023-02-11T14:19:49.463Z,30.60
2023-02-11T14:22:56.636Z,32.30
2023-02-11T14:26:03.885Z,31.00
2023-02-11T14:29:11.657Z,35.70
2023-02-11T14:32:18.672Z,32.70
2023-02-11T14:35:26.315Z,35.50
2023-02-11T14:38:33.803Z,34.50
2023-02-11T14:41:40.666Z,35.40
2023-02-11T14:44:48.158Z,36.30
2023-02-11T14:47:56.685Z,33.40
2023-02-11T14:51:03.818Z,35.50
2023-02-11T14:54:11.316Z,33.10
2023-02-11T14:57:18.693Z,37.80
2023-02-11T15:00:26.045Z,39.50
2023-02-11T15:03:33.200Z,36.80
2023-02-11T15:06:40.876Z,35.10
2023-02-11T15:09:48.474Z,37.90
2023-02-11T15:12:55.437Z,40.30
2023-02-11T15:16:03.167Z,37.80
2023-02-11T15:19:10.861Z,36.60
2023-02-11T15:22:17.863Z,35.90
2023-02-11T15:25:25.683Z,40.40
2023-02-11T15:28:33.104Z,42.60
2023-02-11T15:31:40.750Z,35.40
2023-02-11T15:34:49.014Z,36.40
2023-02-11T15:37:56.608Z,35.30
2023-02-11T15:41:04.274Z,40.70
2023-02-11T15:44:12.311Z,53.40
2023-02-11T15:47:19.508Z,41.20
2023-02-11T15:50:26.910Z,40.10
2023-02-11T15:53:34.107Z,47.50
2023-02-11T15:56:41.400Z,40.00
2023-02-11T15:59:48.577Z,40.10
2023-02-11T16:02:56.160Z,33.90
2023-02-11T16:06:03.523Z,37.90
2023-02-11T16:09:10.917Z,34.90
2023-02-11T16:12:18.472Z,36.90
2023-02-11T16:15:25.394Z,39.50
2023-02-11T16:18:38.468Z,35.90
2023-02-11T16:21:36.805Z,43.60
2023-02-11T16:24:43.885Z,41.00
2023-02-11T16:27:51.754Z,42.90
2023-02-11T16:31:02.400Z,43.20
2023-02-11T16:34:10.215Z,43.30
2023-02-11T16:37:17.950Z,48.00
2023-02-11T16:40:25.420Z,47.70
2023-02-11T16:43:32.803Z,48.50
2023-02-11T16:46:40.622Z,45.90
2023-02-11T16:49:47.818Z,48.80
2023-02-11T16:52:55.404Z,48.60
2023-02-11T16:56:02.546Z,47.40
2023-02-11T16:59:09.588Z,53.70
2023-02-11T17:02:16.819Z,52.20
2023-02-11T17:05:23.834Z,45.60
2023-02-11T17:08:31.222Z,45.00
2023-02-11T17:11:38.618Z,44.30
2023-02-11T17:14:46.793Z,49.90
2023-02-11T17:17:54.451Z,46.40
2023-02-11T17:21:01.645Z,52.30
2023-02-11T17:24:08.725Z,43.10
2023-02-11T17:27:16.270Z,46.90
2023-02-11T17:30:23.168Z,48.00
2023-02-11T17:33:30.798Z,50.50
2023-02-11T17:36:39.780Z,49.40
2023-02-11T17:39:47.015Z,51.00
2023-02-11T17:42:54.317Z,54.20
2023-02-11T17:46:02.628Z,55.20
2023-02-11T17:49:10.617Z,53.30
2023-02-11T17:52:17.993Z,51.20
2023-02-11T17:55:25.726Z,54.50
2023-02-11T17:58:33.048Z,54.40
2023-02-11T18:01:41.087Z,55.00
2023-02-11T18:04:49.149Z,52.50
2023-02-11T18:07:57.048Z,55.40
2023-02-11T18:11:05.003Z,63.10
2023-02-11T18:14:12.455Z,64.20
2023-02-11T18:17:20.101Z,62.10
2023-02-11T18:20:27.709Z,66.80
2023-02-11T18:23:36.543Z,69.80
2023-02-11T18:26:44.651Z,64.00
2023-02-11T18:29:51.995Z,69.90
2023-02-11T18:32:59.890Z,70.60
2023-02-11T18:36:07.714Z,64.80
2023-02-11T18:39:15.048Z,64.20
2023-02-11T18:42:22.832Z,70.10
2023-02-11T18:45:30.833Z,71.60
2023-02-11T18:48:37.966Z,70.30
2023-02-11T18:51:46.153Z,65.30
2023-02-11T18:54:53.754Z,77.20
2023-02-11T18:58:01.310Z,67.50
2023-02-11T19:01:09.854Z,80.00
2023-02-11T19:04:17.511Z,85.30
2023-02-11T19:07:25.379Z,75.30
2023-02-11T19:10:33.017Z,77.90
2023-02-11T19:13:41.438Z,82.70
2023-02-11T19:16:49.518Z,92.80
2023-02-11T19:19:57.183Z,90.50
2023-02-11T19:23:04.801Z,87.10
2023-02-11T19:26:12.561Z,84.10
2023-02-11T19:29:19.912Z,82.80
2023-02-11T19:32:27.744Z,84.40
2023-02-11T19:35:35.284Z,84.10
2023-02-11T19:38:42.479Z,93.50
2023-02-11T19:41:50.037Z,92.90
2023-02-11T19:44:58.662Z,90.70
2023-02-11T19:48:06.869Z,96.70
2023-02-11T19:51:15.074Z,111.20
2023-02-11T19:54:22.135Z,97.00
2023-02-11T19:57:31.086Z,107.90
2023-02-11T20:00:39.293Z,98.60
2023-02-11T20:03:46.842Z,118.00
2023-02-11T20:06:54.634Z,100.20
2023-02-11T20:10:02.769Z,100.60
2023-02-11T20:13:10.610Z,110.20
2023-02-11T20:16:19.224Z,111.30
2023-02-11T20:19:27.280Z,100.60
2023-02-11T20:22:34.375Z,102.80
2023-02-11T20:25:42.215Z,108.20
2023-02-11T20:28:49.997Z,98.10
2023-02-11T20:31:57.325Z,86.40
2023-02-11T20:35:04.942Z,107.40
2023-02-11T20:38:12.392Z,106.40
2023-02-11T20:41:19.836Z,112.80
2023-02-11T20:44:27.549Z,113.80
2023-02-11T20:47:35.077Z,105.00
2023-02-11T20:50:42.600Z,96.70
2023-02-11T20:53:49.839Z,108.70
2023-02-11T20:56:57.643Z,106.10
2023-02-11T21:00:04.951Z,120.70
2023-02-11T21:03:11.998Z,120.30
2023-02-11T21:06:20.161Z,123.70
2023-02-11T21:09:28.598Z,126.20
2023-02-11T21:12:35.783Z,125.40
2023-02-11T21:15:43.366Z,119.20
2023-02-11T21:18:51.054Z,134.60
2023-02-11T21:21:58.056Z,115.40
2023-02-11T21:25:05.338Z,129.20
2023-02-11T21:28:12.420Z,123.20
2023-02-11T21:31:19.670Z,132.50
2023-02-11T21:34:27.075Z,112.00
2023-02-11T21:37:34.016Z,131.80
2023-02-11T21:40:41.084Z,118.30
2023-02-11T21:43:48.176Z,132.80
2023-02-11T21:46:55.441Z,105.50
2023-02-11T21:50:02.671Z,114.00
2023-02-11T21:53:10.271Z,124.30
2023-02-11T21:56:17.675Z,120.00
2023-02-11T21:59:24.801Z,101.50
2023-02-11T22:02:31.926Z,120.50
2023-02-11T22:05:39.381Z,125.60
2023-02-11T22:08:46.303Z,100.60
2023-02-11T22:11:53.917Z,116.40
2023-02-11T22:15:01.417Z,103.40
2023-02-11T22:18:08.253Z,111.60
2023-02-11T22:21:15.948Z,122.40
2023-02-11T22:24:23.095Z,105.60
2023-02-11T22:27:30.322Z,103.90
2023-02-11T22:30:38.169Z,105.70
2023-02-11T22:33:45.252Z,123.50
2023-02-11T22:36:52.625Z,117.10
2023-02-11T22:40:00.121Z,112.80
2023-02-11T22:43:07.071Z,112.30
2023-02-11T22:46:14.565Z,105.20
2023-02-11T22:49:22.244Z,103.30
2023-02-11T22:52:29.303Z,100.60
2023-02-11T22:55:36.794Z,113.80
2023-02-11T22:58:44.572Z,98.60
2023-02-11T23:01:51.512Z,100.40
2023-02-11T23:04:59.223Z,95.60
2023-02-11T23:08:06.383Z,95.30
2023-02-11T23:11:13.696Z,96.50
2023-02-11T23:14:21.150Z,103.50
2023-02-11T23:17:28.207Z,98.50
2023-02-11T23:20:35.883Z,102.10
2023-02-11T23:23:43.206Z,103.40
2023-02-11T23:26:50.498Z,96.90
2023-02-11T23:29:58.015Z,96.70
2023-02-11T23:33:05.396Z,94.30
2023-02-11T23:36:12.962Z,88.30
2023-02-11T23:39:20.011Z,116.80
2023-02-11T23:42:27.045Z,91.80
2023-02-11T23:45:34.666Z,99.50
2023-02-11T23:48:42.186Z,86.80
2023-02-11T23:51:49.169Z,97.20
2023-02-11T23:54:56.844Z,94.10
2023-02-11T23:58:04.294Z,87.90
